createdAt,value
2022-11-28T00:00:48.593Z,100866.19
2022-11-28T00:05:52.843Z,100851.03
2022-11-28T00:10:56.593Z,100848.34
2022-11-28T00:16:04.380Z,100861.22
2022-11-28T00:21:11.344Z,100873.19
2022-11-28T00:26:17.064Z,100861.22
2022-11-28T00:31:24.431Z,100859.53
2022-11-28T00:36:28.515Z,100873.38
2022-11-28T00:41:33.972Z,100866.69
2022-11-28T00:46:39.425Z,100861.81
2022-11-28T00:51:43.184Z,100846.56
2022-11-28T00:56:46.861Z,100868.91
2022-11-28T01:01:52.134Z,100863.94
2022-11-28T01:06:57.183Z,100834.31
2022-11-28T01:12:00.861Z,100823.28
2022-11-28T01:17:05.942Z,100829.06
2022-11-28T01:22:09.714Z,100830.22
2022-11-28T01:27:13.390Z,100836.25
2022-11-28T01:32:18.440Z,100831.38
2022-11-28T01:37:22.136Z,100819.94
2022-11-28T01:42:25.978Z,100816.53
2022-11-28T01:47:32.319Z,100822.00
2022-11-28T01:52:39.797Z,100816.03
2022-11-28T01:57:43.695Z,100816.59
2022-11-28T02:02:50.898Z,100817.91
2022-11-28T02:07:55.078Z,100826.25
2022-11-28T02:13:14.536Z,100831.06
2022-11-28T02:18:35.930Z,100827.69
2022-11-28T02:24:00.188Z,100828.50
2022-11-28T02:29:37.819Z,100821.75
2022-11-28T02:34:51.543Z,100823.53
2022-11-28T02:40:06.886Z,100825.75
2022-11-28T02:45:14.511Z,100827.34
2022-11-28T02:50:25.802Z,100826.63
2022-11-28T02:55:29.514Z,100823.25
2022-11-28T03:00:36.514Z,100812.44
2022-11-28T03:05:47.106Z,100794.34
2022-11-28T03:10:56.511Z,100801.97
2022-11-28T03:16:12.115Z,100799.37
2022-11-28T03:21:23.330Z,100796.91
2022-11-28T03:26:34.927Z,100798.50
2022-11-28T03:31:42.195Z,100797.78
2022-11-28T03:36:52.051Z,100802.22
2022-11-28T03:42:01.055Z,100800.38
2022-11-28T03:47:07.227Z,100808.91
2022-11-28T03:52:17.367Z,100803.19
2022-11-28T03:57:29.801Z,100797.00
2022-11-28T04:02:39.973Z,100797.34
2022-11-28T04:07:47.398Z,100798.88
2022-11-28T04:12:58.274Z,100804.72
2022-11-28T04:18:07.697Z,100816.78
2022-11-28T04:23:16.255Z,100806.37
2022-11-28T04:28:24.285Z,100803.91
2022-11-28T04:33:33.048Z,100810.19
2022-11-28T04:38:40.853Z,100815.63
2022-11-28T04:43:49.982Z,100826.81
2022-11-28T04:48:53.730Z,100819.19
2022-11-28T04:54:02.963Z,100830.69
2022-11-28T04:59:08.463Z,100834.78
2022-11-28T05:04:13.415Z,100841.63
2022-11-28T05:09:18.495Z,100832.03
2022-11-28T05:14:22.217Z,100833.81
2022-11-28T05:19:25.857Z,100845.06
2022-11-28T05:24:32.502Z,100848.34
2022-11-28T05:29:36.245Z,100856.19
2022-11-28T05:34:40.147Z,100851.91
2022-11-28T05:39:45.537Z,100850.22
2022-11-28T05:44:49.642Z,100858.97
2022-11-28T05:49:53.403Z,100860.66
2022-11-28T05:54:58.838Z,100859.34
2022-11-28T06:00:02.674Z,100859.44
2022-11-28T06:05:35.111Z,100849.94
2022-11-28T06:10:40.588Z,100855.88
2022-11-28T06:15:45.383Z,100859.59
2022-11-28T06:20:49.112Z,100852.06
2022-11-28T06:25:54.279Z,100861.56
2022-11-28T06:30:57.974Z,100857.19
2022-11-28T06:36:02.208Z,100863.22
2022-11-28T06:41:09.620Z,100861.72
2022-11-28T06:46:16.288Z,100866.06
2022-11-28T06:51:21.301Z,100868.47
2022-11-28T06:56:26.381Z,100864.31
2022-11-28T07:01:31.475Z,100878.88
2022-11-28T07:06:35.341Z,100887.63
2022-11-28T07:11:43.182Z,100878.47
2022-11-28T07:16:47.369Z,100889.66
2022-11-28T07:21:51.317Z,100883.78
2022-11-28T07:26:56.535Z,100896.91
2022-11-28T07:32:00.370Z,100897.72
2022-11-28T07:37:04.149Z,100901.81
2022-11-28T07:42:09.309Z,100908.75
2022-11-28T07:47:13.043Z,100908.19
2022-11-28T07:52:16.866Z,100916.72
2022-11-28T07:57:21.940Z,100920.34
2022-11-28T08:02:27.427Z,100917.88
2022-11-28T08:07:31.817Z,100921.16
2022-11-28T08:12:36.898Z,100930.75
2022-11-28T08:17:40.619Z,100934.19
2022-11-28T08:22:44.260Z,100934.56
2022-11-28T08:27:49.282Z,100939.78
2022-11-28T08:32:52.955Z,100942.53
2022-11-28T08:38:01.579Z,100946.06
2022-11-28T08:43:08.166Z,100945.13
2022-11-28T08:48:12.047Z,100941.09
2022-11-28T08:53:18.515Z,100943.59
2022-11-28T08:58:23.902Z,100942.97
2022-11-28T09:03:27.633Z,100955.13
2022-11-28T09:08:31.338Z,100941.59
2022-11-28T09:13:37.061Z,100958.84
2022-11-28T09:18:40.890Z,100937.50
2022-11-28T09:23:45.879Z,100959.09
2022-11-28T09:28:51.319Z,100961.22
2022-11-28T09:33:55.155Z,100953.81
2022-11-28T09:39:00.959Z,100966.06
2022-11-28T09:44:15.366Z,100974.41
2022-11-28T09:49:30.754Z,100974.50
2022-11-28T09:54:45.262Z,100977.50
2022-11-28T09:59:50.387Z,100981.22
2022-11-28T10:05:04.959Z,100977.13
2022-11-28T10:10:18.514Z,100980.84
2022-11-28T10:15:41.282Z,100976.13
2022-11-28T10:20:48.029Z,100982.34
2022-11-28T10:25:56.636Z,100977.69
2022-11-28T10:31:06.949Z,100982.94
2022-11-28T10:36:16.188Z,100972.00
2022-11-28T10:41:25.867Z,100975.44
2022-11-28T10:46:44.368Z,100979.72
2022-11-28T10:52:01.118Z,100984.62
2022-11-28T10:57:12.166Z,100993.41
2022-11-28T11:02:23.722Z,100987.47
2022-11-28T11:07:30.758Z,100984.94
2022-11-28T11:12:35.893Z,100984.38
2022-11-28T11:17:40.966Z,100979.91
2022-11-28T11:22:55.832Z,100975.28
2022-11-28T11:28:01.811Z,100973.53
2022-11-28T11:33:14.950Z,100964.09
2022-11-28T11:38:32.359Z,100969.31
2022-11-28T11:43:40.050Z,100961.47
2022-11-28T11:48:46.595Z,100960.34
2022-11-28T11:54:00.515Z,100965.44
2022-11-28T11:59:10.807Z,100970.28
2022-11-28T12:04:43.779Z,100980.53
2022-11-28T12:09:47.579Z,100980.34
2022-11-28T12:14:52.661Z,100967.03
2022-11-28T12:20:10.862Z,100963.97
2022-11-28T12:25:19.589Z,100967.66
2022-11-28T12:30:26.703Z,100976.19
2022-11-28T12:35:39.458Z,100961.53
2022-11-28T12:40:53.675Z,100963.53
2022-11-28T12:46:06.367Z,100962.97
2022-11-28T12:51:21.856Z,100976.09
2022-11-28T12:56:39.696Z,100975.44
2022-11-28T13:01:55.991Z,100973.81
2022-11-28T13:07:10.046Z,100971.47
2022-11-28T13:12:24.002Z,100972.72
2022-11-28T13:17:42.732Z,100975.25
2022-11-28T13:22:59.450Z,100970.09
2022-11-28T13:28:12.335Z,100971.72
2022-11-28T13:33:31.335Z,100975.41
2022-11-28T13:39:09.600Z,100975.53
2022-11-28T13:44:18.880Z,100972.22
2022-11-28T13:49:24.882Z,100976.78
2022-11-28T13:54:42.913Z,100972.22
2022-11-28T13:59:48.969Z,100977.94
2022-11-28T14:04:52.906Z,100981.31
2022-11-28T14:10:16.579Z,100972.09
2022-11-28T14:15:30.804Z,100972.41
2022-11-28T14:20:46.733Z,100977.78
2022-11-28T14:25:54.559Z,100982.28
2022-11-28T14:31:06.086Z,100986.94
2022-11-28T14:36:26.144Z,100981.12
2022-11-28T14:41:31.503Z,100992.41
2022-11-28T14:46:35.312Z,100989.87
2022-11-28T14:52:38.586Z,101001.41
2022-11-28T14:57:58.206Z,101004.88
2022-11-28T15:03:27.048Z,101004.69
2022-11-28T15:08:50.281Z,101011.66
2022-11-28T15:14:16.047Z,101024.44
2022-11-28T15:19:25.555Z,101021.44
2022-11-28T15:24:33.235Z,101033.09
2022-11-28T15:29:38.332Z,101032.06
2022-11-28T15:34:42.439Z,101036.75
2022-11-28T15:39:48.645Z,101039.19
2022-11-28T15:44:57.919Z,101052.09
2022-11-28T15:50:03.898Z,101045.78
2022-11-28T15:55:16.683Z,101047.44
2022-11-28T16:00:24.358Z,101057.19
2022-11-28T16:05:28.710Z,101056.44
2022-11-28T16:10:38.154Z,101062.03
2022-11-28T16:15:50.105Z,101074.50
2022-11-28T16:20:55.220Z,101074.34
2022-11-28T16:26:03.557Z,101093.25
2022-11-28T16:31:13.681Z,101088.56
2022-11-28T16:36:21.950Z,101086.03
2022-11-28T16:41:26.512Z,101103.19
2022-11-28T16:46:35.901Z,101119.06
2022-11-28T16:51:41.807Z,101116.59
2022-11-28T16:56:45.627Z,101126.06
2022-11-28T17:01:54.785Z,101125.00
2022-11-28T17:07:04.252Z,101126.38
2022-11-28T17:12:12.603Z,101139.91
2022-11-28T17:17:19.899Z,101151.03
2022-11-28T17:22:25.962Z,101160.97
2022-11-28T17:27:29.693Z,101157.00
2022-11-28T17:32:34.726Z,101161.44
2022-11-28T17:37:38.665Z,101172.19
2022-11-28T17:42:42.363Z,101167.22
2022-11-28T17:47:47.621Z,101170.75
2022-11-28T17:52:51.500Z,101168.91
2022-11-28T17:57:55.247Z,101171.16
2022-11-28T18:03:01.513Z,101178.78
2022-11-28T18:08:05.611Z,101178.88
2022-11-28T18:13:12.206Z,101177.91
2022-11-28T18:18:17.432Z,101181.25
2022-11-28T18:23:21.487Z,101164.81
2022-11-28T18:28:26.032Z,101177.50
2022-11-28T18:33:31.165Z,101174.84
2022-11-28T18:38:34.921Z,101174.84
2022-11-28T18:43:39.636Z,101179.91
2022-11-28T18:48:47.034Z,101181.44
2022-11-28T18:53:52.103Z,101176.16
2022-11-28T18:58:57.644Z,101188.78
2022-11-28T19:04:04.446Z,101182.47
2022-11-28T19:09:10.434Z,101184.78
2022-11-28T19:14:16.368Z,101192.41
2022-11-28T19:19:21.626Z,101184.44
2022-11-28T19:24:26.070Z,101185.81
2022-11-28T19:29:29.974Z,101197.75
2022-11-28T19:34:36.542Z,101197.47
2022-11-28T19:39:40.415Z,101204.03
2022-11-28T19:44:44.270Z,101209.97
2022-11-28T19:49:50.051Z,101211.38
2022-11-28T19:54:54.315Z,101213.66
2022-11-28T19:59:58.926Z,101211.00
2022-11-28T20:05:04.098Z,101221.03
2022-11-28T20:10:09.502Z,101221.53
2022-11-28T20:15:18.157Z,101223.13
2022-11-28T20:20:23.929Z,101223.94
2022-11-28T20:25:27.883Z,101230.78
2022-11-28T20:30:31.620Z,101231.38
2022-11-28T20:35:36.826Z,101244.13
2022-11-28T20:40:41.113Z,101240.50
2022-11-28T20:45:44.985Z,101249.78
2022-11-28T20:50:50.136Z,101253.06
2022-11-28T20:56:00.432Z,101263.19
2022-11-28T21:01:05.109Z,101260.41
2022-11-28T21:06:10.334Z,101259.44
2022-11-28T21:11:36.566Z,101265.47
2022-11-28T21:16:39.703Z,101272.88
2022-11-28T21:21:44.898Z,101275.16
2022-11-28T21:26:53.450Z,101272.59
2022-11-28T21:31:58.072Z,101279.44
2022-11-28T21:37:03.270Z,101280.91
2022-11-28T21:42:07.230Z,101272.00
2022-11-28T21:47:10.926Z,101266.38
2022-11-28T21:52:16.769Z,101272.91
2022-11-28T21:57:20.932Z,101273.31
2022-11-28T22:02:30.461Z,101284.09
2022-11-28T22:07:37.780Z,101289.69
2022-11-28T22:12:41.689Z,101284.37
2022-11-28T22:17:45.744Z,101293.66
2022-11-28T22:22:51.203Z,101290.00
2022-11-28T22:27:54.909Z,101288.91
2022-11-28T22:32:59.207Z,101291.28
2022-11-28T22:38:04.588Z,101295.53
2022-11-28T22:43:09.072Z,101287.94
2022-11-28T22:48:12.832Z,101295.91
2022-11-28T22:53:18.242Z,101295.91
2022-11-28T22:58:22.097Z,101297.84
2022-11-28T23:03:25.891Z,101304.56
2022-11-28T23:08:31.874Z,101315.53
2022-11-28T23:13:36.159Z,101316.09
2022-11-28T23:18:41.392Z,101316.59
2022-11-28T23:23:46.834Z,101331.72
2022-11-28T23:28:51.311Z,101329.72
2022-11-28T23:33:55.222Z,101334.66
2022-11-28T23:39:02.622Z,101331.78
2022-11-28T23:44:06.524Z,101335.78
2022-11-28T23:49:10.938Z,101344.00
2022-11-28T23:54:16.008Z,101350.59
2022-11-28T23:59:19.938Z,101352.19
